Archival Weather

Václav Havel Intl Apt

Prague, Czechia (LKPR)

Report from: Friday, May 26, 2023 12:00 PM CEST
Current time: Friday, July 19, 2024 5:48 AM CEST

Current weather – Weather history – Daily summaries
Weather forecast

Temperature18.0°C (64.4°F)
Dew point8.0°C (46.4°F)
Winds 7 kts (3.6 m/s, 8.1 mph) Vrb
Winds variableWinds variable from Northwest (310°) to North-Northeast (30°)
Visibility6.2 mi. (10 km)
Clouds Ceiling: Broken clouds 4,200 ft. (1,280 m)
Altimeter30.27 in.Hg (1025 mB)
Relative humidity52 %
Density altitude113 ft. (34 m)
Remarks No significant changes expected in the next two hours
Flight conditions Visual Meteorological Conditions
Raw dataLKPR 261000Z 36007KT 310V030 9999 BKN042 18/08 Q1025 NOSIG
An error has occurred. This application may no longer respond until reloaded. Reload 🗙